Time;durP1;ratioP1;P1;durP2;ratioP2;P2;SDS_P1;SDS_P2;PMS_P1;PMS_P2;Temp;Humidity;BMP_temperature;BMP_pressure;BME280_temperature;BME280_humidity;BME280_pressure;Samples;Min_cycle;Max_cycle;Signal;HPM_P1;HPM_P2
2022/12/24 00:01:07;;;;;;;34.05;4.65;;;;;;;8.90;100.00;100548.81;5061386;28;20028;-37
2022/12/24 00:03:33;;;;;;;63.72;6.25;;;;;;;8.86;100.00;100534.06;5069920;28;20032;-39
2022/12/24 00:06:03;;;;;;;48.70;4.75;;;;;;;8.86;100.00;100539.44;5049954;28;20132;-36
2022/12/24 00:08:29;;;;;;;53.90;8.13;;;;;;;8.84;100.00;100540.63;5056703;28;20075;-36
2022/12/24 00:10:54;;;;;;;63.70;9.25;;;;;;;8.85;100.00;100543.13;5059166;28;20468;-39
2022/12/24 00:13:20;;;;;;;60.30;5.75;;;;;;;8.83;100.00;100545.16;5050531;28;20500;-38
2022/12/24 00:15:45;;;;;;;50.28;5.82;;;;;;;8.82;100.00;100542.63;5050972;28;20028;-35
2022/12/24 00:18:11;;;;;;;58.45;5.75;;;;;;;8.78;100.00;100542.16;5053993;28;20024;-36
2022/12/24 00:20:36;;;;;;;48.28;6.00;;;;;;;8.76;100.00;100546.88;5061950;28;20025;-35
2022/12/24 00:23:01;;;;;;;50.35;6.18;;;;;;;8.70;100.00;100548.41;5049837;28;20049;-37
2022/12/24 00:25:27;;;;;;;49.00;6.82;;;;;;;8.68;100.00;100546.91;5049929;28;20025;-35
2022/12/24 00:27:52;;;;;;;53.47;5.90;;;;;;;8.66;100.00;100559.66;5050447;28;20053;-38
2022/12/24 00:30:17;;;;;;;52.50;5.68;;;;;;;8.65;100.00;100552.66;5061345;28;20468;-37
2022/12/24 00:32:43;;;;;;;66.32;7.43;;;;;;;8.63;100.00;100555.50;5051909;28;20043;-37
2022/12/24 00:35:08;;;;;;;56.05;6.05;;;;;;;8.60;100.00;100557.69;5069708;28;20113;-37
2022/12/24 00:37:33;;;;;;;55.03;5.55;;;;;;;8.60;100.00;100555.84;5062899;28;20021;-36
2022/12/24 00:39:59;;;;;;;43.75;5.72;;;;;;;8.60;100.00;100561.22;5065769;28;20511;-35
2022/12/24 00:42:24;;;;;;;68.88;6.13;;;;;;;8.61;100.00;100570.94;5051669;28;20127;-35
2022/12/24 00:44:49;;;;;;;62.55;6.95;;;;;;;8.65;100.00;100571.44;5056047;28;20028;-36
2022/12/24 00:47:15;;;;;;;61.30;5.95;;;;;;;8.61;100.00;100573.63;5063122;28;20078;-36
2022/12/24 00:49:40;;;;;;;61.65;6.38;;;;;;;8.59;100.00;100581.00;5057425;28;20017;-36
2022/12/24 00:52:05;;;;;;;54.95;6.30;;;;;;;8.61;100.00;100584.38;5071882;28;20612;-36
2022/12/24 00:54:31;;;;;;;54.95;7.55;;;;;;;8.61;100.00;100584.38;5073298;28;20507;-36
2022/12/24 00:56:56;;;;;;;57.08;6.68;;;;;;;8.61;100.00;100588.88;5070834;28;20064;-38
2022/12/24 00:59:22;;;;;;;65.20;8.07;;;;;;;8.65;100.00;100592.88;5063701;28;20033;-35
2022/12/24 01:01:47;;;;;;;57.47;7.00;;;;;;;8.63;100.00;100597.59;5054500;28;20029;-35
2022/12/24 01:06:56;;;;;;;49.45;5.72;;;;;;;8.62;100.00;100603.97;5053167;28;20067;-35
2022/12/24 01:09:22;;;;;;;46.97;5.88;;;;;;;8.59;100.00;100601.66;5064519;28;20046;-35
2022/12/24 01:11:47;;;;;;;59.28;5.60;;;;;;;8.64;100.00;100596.59;5072506;28;20035;-36
2022/12/24 01:14:12;;;;;;;64.38;6.00;;;;;;;8.65;100.00;100600.94;5072832;28;20054;-37
2022/12/24 01:16:38;;;;;;;54.88;6.70;;;;;;;8.64;100.00;100599.28;5072731;28;20033;-34
2022/12/24 01:19:03;;;;;;;62.90;6.85;;;;;;;8.64;100.00;100607.31;5061441;28;20074;-36
2022/12/24 01:21:29;;;;;;;54.13;5.65;;;;;;;8.63;100.00;100601.09;5060869;28;20029;-37
2022/12/24 01:23:54;;;;;;;47.28;5.10;;;;;;;8.65;100.00;100611.66;5052369;28;20053;-36
2022/12/24 01:26:19;;;;;;;53.40;5.40;;;;;;;8.64;100.00;100616.19;5060259;28;20498;-37
2022/12/24 01:28:45;;;;;;;60.75;7.50;;;;;;;8.61;100.00;100604.97;5063729;28;20504;-38
2022/12/24 01:31:15;;;;;;;53.90;5.45;;;;;;;8.60;100.00;100612.19;5063021;28;20447;-36
2022/12/24 01:33:41;;;;;;;55.00;5.25;;;;;;;8.60;100.00;100608.66;5072818;28;20024;-35
2022/12/24 01:36:07;;;;;;;54.72;5.90;;;;;;;8.64;100.00;100616.19;5071491;28;20449;-37
2022/12/24 01:38:32;;;;;;;47.95;5.85;;;;;;;8.62;100.00;100625.44;5066617;28;20036;-38
2022/12/24 01:43:42;;;;;;;48.80;5.50;;;;;;;8.65;100.00;100633.97;5072535;28;20403;-38
2022/12/24 01:46:29;;;;;;;42.80;4.95;;;;;;;8.64;100.00;100652.94;5072509;28;20111;-38
2022/12/24 01:48:59;;;;;;;41.85;4.43;;;;;;;8.65;100.00;100643.84;5062900;28;20029;-38
2022/12/24 01:51:38;;;;;;;47.53;4.93;;;;;;;8.68;100.00;100643.50;5056570;28;20116;-38
2022/12/24 01:54:06;;;;;;;52.20;5.05;;;;;;;8.64;100.00;100648.41;5057440;28;20024;-39
2022/12/24 01:56:31;;;;;;;;;;;;;;;8.62;100.00;100649.56;5071170;28;20032;-39
2022/12/24 01:58:59;;;;;;;45.45;6.25;;;;;;;8.60;100.00;100651.59;5061002;28;20325;-39
2022/12/24 02:01:25;;;;;;;36.78;4.60;;;;;;;8.56;100.00;100654.63;5064161;28;20029;-39
2022/12/24 02:03:51;;;;;;;35.88;4.70;;;;;;;8.64;100.00;100658.28;5070176;28;20039;-39
2022/12/24 02:06:18;;;;;;;49.65;4.53;;;;;;;8.66;100.00;100661.63;5070506;28;20463;-39
2022/12/24 02:08:43;;;;;;;53.00;5.25;;;;;;;8.68;100.00;100662.28;5064745;28;20065;-38
2022/12/24 02:11:19;;;;;;;59.58;6.18;;;;;;;8.70;100.00;100671.00;5064934;28;20531;-39
2022/12/24 02:13:49;;;;;;;43.88;4.57;;;;;;;8.72;100.00;100669.00;5051454;28;20423;-39
2022/12/24 02:16:20;;;;;;;32.13;3.75;;;;;;;8.72;100.00;100660.94;5058775;28;20032;-39
2022/12/24 02:18:55;;;;;;;35.03;4.32;;;;;;;8.72;100.00;100664.44;5063990;28;20395;-37
2022/12/24 02:21:30;;;;;;;54.50;6.03;;;;;;;8.71;100.00;100669.97;5052941;28;20037;-37
2022/12/24 02:24:14;;;;;;;40.33;4.28;;;;;;;8.73;100.00;100674.16;5049523;28;20506;-35
2022/12/24 02:27:13;;;;;;;42.97;4.45;;;;;;;8.77;100.00;100685.41;5051601;28;20049;-36
2022/12/24 02:29:57;;;;;;;40.50;4.28;;;;;;;8.77;100.00;100680.03;5053250;28;20048;-37
2022/12/24 02:32:27;;;;;;;39.63;4.20;;;;;;;8.79;100.00;100676.16;5066055;28;20029;-35
2022/12/24 02:34:52;;;;;;;34.97;4.53;;;;;;;8.78;100.00;100676.34;5053261;28;20404;-37
2022/12/24 02:37:31;;;;;;;46.28;4.93;;;;;;;8.77;100.00;100677.34;5070945;28;20029;-38
2022/12/24 02:40:07;;;;;;;40.28;4.95;;;;;;;8.77;100.00;100680.03;5066880;28;20033;-36
2022/12/24 02:42:39;;;;;;;41.28;4.20;;;;;;;8.75;100.00;100687.41;5060002;28;20021;-36
2022/12/24 02:45:08;;;;;;;53.60;4.38;;;;;;;8.73;100.00;100684.06;5069719;28;20460;-37
2022/12/24 02:47:34;;;;;;;45.70;5.80;;;;;;;8.69;100.00;100682.72;5067524;28;20365;-35
2022/12/24 02:50:00;;;;;;;47.28;5.32;;;;;;;8.65;100.00;100684.09;5070831;28;20051;-34
2022/12/24 02:52:37;;;;;;;53.78;5.95;;;;;;;8.62;100.00;100689.81;5051115;28;20055;-35
2022/12/24 02:55:22;;;;;;;52.55;6.80;;;;;;;8.61;100.00;100701.53;5061404;28;20419;-34
2022/12/24 02:58:12;;;;;;;61.55;5.13;;;;;;;8.57;100.00;100709.94;5050770;28;20242;-34
2022/12/24 03:01:16;;;;;;;78.32;6.93;;;;;;;8.57;100.00;100701.88;5064707;28;20025;-36
2022/12/24 03:03:58;;;;;;;59.95;6.25;;;;;;;8.56;100.00;100721.69;5049933;28;20464;-38
2022/12/24 03:07:13;;;;;;;47.28;5.60;;;;;;;8.54;100.00;100712.97;5050518;28;20024;-37
2022/12/24 03:09:51;;;;;;;63.20;7.47;;;;;;;8.54;100.00;100712.13;5051707;28;20506;-36
2022/12/24 03:12:19;;;;;;;;;;;;;;;8.53;100.00;100724.72;5057423;28;20064;-36
2022/12/24 03:14:46;;;;;;;47.75;5.55;;;;;;;8.53;100.00;100730.09;5065377;28;19920;-36
2022/12/24 03:17:12;;;;;;;50.83;5.82;;;;;;;8.52;100.00;100728.38;5069501;28;20070;-37
2022/12/24 03:19:37;;;;;;;60.35;6.93;;;;;;;8.54;100.00;100736.28;5068827;28;20031;-36
2022/12/24 03:22:06;;;;;;;57.42;7.00;;;;;;;8.56;100.00;100737.78;5052958;28;20069;-36
2022/12/24 03:24:32;;;;;;;49.78;5.78;;;;;;;8.59;100.00;100738.44;5048842;28;20116;-35
2022/12/24 03:26:58;;;;;;;62.35;6.80;;;;;;;8.65;100.00;100724.34;5050942;28;20124;-35
2022/12/24 03:29:23;;;;;;;44.53;4.80;;;;;;;8.68;100.00;100721.31;5048969;28;20056;-36
2022/12/24 03:31:51;;;;;;;55.10;5.22;;;;;;;8.71;100.00;100727.16;5050136;28;20021;-35
2022/12/24 03:34:16;;;;;;;48.05;4.65;;;;;;;8.77;100.00;100722.97;5049379;28;20032;-38
2022/12/24 03:36:42;;;;;;;57.28;6.07;;;;;;;8.85;100.00;100731.00;5059635;28;20028;-36
2022/12/24 03:39:08;;;;;;;45.72;4.75;;;;;;;8.89;100.00;100726.94;5057292;28;20047;-36
2022/12/24 03:41:35;;;;;;;52.25;5.43;;;;;;;8.93;100.00;100720.22;5065754;28;20060;-36
2022/12/24 03:44:00;;;;;;;52.40;5.45;;;;;;;8.96;100.00;100724.41;5057765;28;20028;-36
2022/12/24 03:46:26;;;;;;;48.08;4.97;;;;;;;8.97;100.00;100737.63;5068347;28;20138;-38
2022/12/24 03:48:52;;;;;;;48.10;5.95;;;;;;;9.00;100.00;100728.41;5070402;28;20369;-38
2022/12/24 03:51:22;;;;;;;48.30;4.35;;;;;;;9.01;100.00;100730.91;5070293;28;20020;-38
2022/12/24 03:53:48;;;;;;;44.90;4.25;;;;;;;9.00;100.00;100737.31;5066071;28;20328;-36
2022/12/24 03:56:14;;;;;;;43.42;4.53;;;;;;;9.01;100.00;100736.28;5055148;28;20039;-36
2022/12/24 03:58:39;;;;;;;45.95;5.38;;;;;;;8.99;100.00;100726.72;5070010;28;20020;-36
2022/12/24 04:01:05;;;;;;;60.03;5.88;;;;;;;8.97;100.00;100734.13;5068574;28;20111;-37
2022/12/24 04:03:30;;;;;;;49.50;5.75;;;;;;;8.98;100.00;100743.88;5068741;28;20024;-36
2022/12/24 04:06:07;;;;;;;45.33;5.93;;;;;;;8.94;100.00;100735.31;5050902;28;20033;-36
2022/12/24 04:08:33;;;;;;;52.22;5.82;;;;;;;8.93;100.00;100740.84;5049929;28;20500;-35
2022/12/24 04:10:58;;;;;;;57.30;5.32;;;;;;;8.93;100.00;100743.53;5050967;28;20024;-38
2022/12/24 04:13:24;;;;;;;45.97;5.10;;;;;;;8.91;100.00;100746.38;5050606;28;20028;-38
2022/12/24 04:16:07;;;;;;;46.03;4.80;;;;;;;8.92;100.00;100747.22;5054105;28;20021;-37
2022/12/24 04:18:32;;;;;;;46.92;4.78;;;;;;;8.92;100.00;100742.69;5074221;28;20032;-38
2022/12/24 04:20:58;;;;;;;36.42;5.00;;;;;;;8.92;100.00;100742.69;5071821;28;20446;-37
2022/12/24 04:23:23;;;;;;;47.83;5.32;;;;;;;8.91;100.00;100741.03;5071601;28;20127;-38
2022/12/24 04:25:49;;;;;;;43.42;4.85;;;;;;;8.94;100.00;100756.78;5070084;28;20446;-35
2022/12/24 04:28:15;;;;;;;49.45;4.80;;;;;;;8.93;100.00;100755.09;5052168;28;20408;-36
2022/12/24 04:30:41;;;;;;;44.72;5.20;;;;;;;8.93;100.00;100752.44;5062962;28;20149;-38
2022/12/24 04:33:06;;;;;;;49.55;5.50;;;;;;;8.94;100.00;100761.31;5071805;28;20657;-36
2022/12/24 04:35:32;;;;;;;49.95;7.38;;;;;;;8.95;100.00;100760.28;5069639;28;20403;-36
2022/12/24 04:37:58;;;;;;;53.17;5.47;;;;;;;8.96;100.00;100764.66;5054178;28;20445;-38
2022/12/24 04:40:24;;;;;;;44.75;5.63;;;;;;;8.97;100.00;100769.00;5053753;28;20064;-35
2022/12/24 04:42:49;;;;;;;51.65;6.13;;;;;;;8.98;100.00;100771.53;5071185;28;20082;-34
2022/12/24 04:45:16;;;;;;;39.50;4.85;;;;;;;8.99;100.00;100775.06;5068588;28;20028;-34
2022/12/24 04:47:41;;;;;;;58.53;5.72;;;;;;;9.00;100.00;100782.09;5055864;28;20051;-35
2022/12/24 04:50:08;;;;;;;48.38;5.50;;;;;;;9.00;100.00;100782.94;5053452;28;20029;-36
2022/12/24 04:52:34;;;;;;;53.53;4.80;;;;;;;9.00;100.00;100782.94;5060249;28;20058;-35
2022/12/24 04:54:59;;;;;;;55.83;5.25;;;;;;;9.01;100.00;100779.25;5070622;28;20033;-36
2022/12/24 04:57:24;;;;;;;56.90;6.18;;;;;;;9.01;100.00;100781.91;5069756;28;20448;-36
2022/12/24 04:59:50;;;;;;;69.63;6.60;;;;;;;8.99;100.00;100781.25;5071411;28;20036;-35
2022/12/24 05:02:15;;;;;;;54.60;6.38;;;;;;;8.99;100.00;100786.63;5055046;28;20076;-35
2022/12/24 05:04:40;;;;;;;51.22;5.40;;;;;;;8.98;100.00;100784.97;5071943;28;20036;-35
2022/12/24 05:07:06;;;;;;;54.20;8.02;;;;;;;8.98;100.00;100792.19;5056806;28;20033;-36
2022/12/24 05:09:31;;;;;;;59.25;5.15;;;;;;;8.97;100.00;100799.38;5052251;28;20040;-36
2022/12/24 05:11:56;;;;;;;63.97;6.78;;;;;;;8.95;100.00;100801.41;5051751;28;20399;-35
2022/12/24 05:14:22;;;;;;;43.70;5.18;;;;;;;8.96;100.00;100802.25;5061519;28;20114;-35
2022/12/24 05:16:47;;;;;;;40.22;5.97;;;;;;;8.95;100.00;100814.84;5060290;28;20656;-38
2022/12/24 05:19:13;;;;;;;61.83;5.55;;;;;;;8.96;100.00;100802.25;5051119;28;20394;-34
2022/12/24 05:21:38;;;;;;;54.33;6.07;;;;;;;8.96;100.00;100803.06;5054263;28;20407;-38
2022/12/24 05:26:49;;;;;;;53.80;7.00;;;;;;;8.95;100.00;100790.69;5053855;28;20712;-37
2022/12/24 05:29:15;;;;;;;55.83;6.17;;;;;;;8.95;100.00;100796.03;5064392;28;20048;-34
2022/12/24 05:31:42;;;;;;;53.80;5.25;;;;;;;8.94;100.00;100783.63;5057166;28;20025;-37
2022/12/24 05:34:08;;;;;;;62.28;6.22;;;;;;;8.93;100.00;100790.00;5070045;28;20517;-36
2022/12/24 05:36:33;;;;;;;52.10;7.18;;;;;;;8.93;100.00;100779.28;5063293;28;20049;-36
2022/12/24 05:38:59;;;;;;;52.00;5.63;;;;;;;8.91;100.00;100794.69;5065793;28;20091;-35
2022/12/24 05:41:24;;;;;;;55.90;6.00;;;;;;;8.88;100.00;100789.69;5062080;28;20032;-34
2022/12/24 05:43:50;;;;;;;57.22;7.20;;;;;;;8.84;100.00;100793.69;5053625;28;20029;-35
2022/12/24 05:46:20;;;;;;;66.20;6.47;;;;;;;8.81;100.00;100801.28;5060374;28;20045;-35
2022/12/24 05:48:46;;;;;;;60.88;6.63;;;;;;;8.80;100.00;100808.50;5058385;28;20021;-37
2022/12/24 05:51:12;;;;;;;69.78;7.60;;;;;;;8.77;100.00;100808.84;5060595;28;20506;-39
2022/12/24 05:53:38;;;;;;;60.03;6.13;;;;;;;8.74;100.00;100803.78;5059116;28;20520;-36
2022/12/24 05:56:05;;;;;;;56.65;5.00;;;;;;;8.71;100.00;100807.66;5068487;28;20032;-36
2022/12/24 05:58:30;;;;;;;55.78;7.25;;;;;;;8.68;100.00;100815.22;5050188;28;20330;-37
2022/12/24 06:00:56;;;;;;;57.72;5.78;;;;;;;8.65;100.00;100826.28;5050375;28;20082;-35
2022/12/24 06:03:21;;;;;;;66.88;7.03;;;;;;;8.58;100.00;100818.06;5050227;28;20044;-38
2022/12/24 06:05:46;;;;;;;65.20;7.45;;;;;;;8.58;100.00;100842.22;5050504;28;20025;-35
2022/12/24 06:08:12;;;;;;;62.22;7.38;;;;;;;8.57;100.00;100836.00;5050692;28;20553;-37
2022/12/24 06:10:37;;;;;;;48.90;5.57;;;;;;;8.53;100.00;100833.84;5051659;28;20388;-37
2022/12/24 06:13:02;;;;;;;59.08;5.97;;;;;;;8.52;100.00;100837.53;5050329;28;20025;-36
2022/12/24 06:15:28;;;;;;;66.45;6.45;;;;;;;8.48;100.00;100846.94;5050277;28;20121;-35
2022/12/24 06:17:53;;;;;;;60.53;6.72;;;;;;;8.44;100.00;100857.16;5050140;28;20064;-38
2022/12/24 06:20:18;;;;;;;69.05;6.35;;;;;;;8.43;100.00;100863.53;5050405;28;20078;-36
2022/12/24 06:22:44;;;;;;;66.38;6.97;;;;;;;8.43;100.00;100866.22;5060957;28;20115;-37
2022/12/24 06:25:09;;;;;;;69.10;6.22;;;;;;;8.43;100.00;100860.00;5058037;28;20029;-36
2022/12/24 06:27:34;;;;;;;70.63;6.85;;;;;;;8.43;100.00;100860.00;5065381;28;20028;-36
2022/12/24 06:30:00;;;;;;;67.78;7.28;;;;;;;8.43;100.00;100868.91;5049774;28;20033;-37
2022/12/24 06:32:25;;;;;;;70.90;7.10;;;;;;;8.41;100.00;100870.91;5065668;28;20028;-37
2022/12/24 06:34:51;;;;;;;81.20;8.38;;;;;;;8.40;100.00;100869.22;5060773;28;20028;-36
2022/12/24 06:37:19;;;;;;;64.13;7.05;;;;;;;8.37;100.00;100866.81;5061723;28;20610;-36
2022/12/24 06:39:45;;;;;;;;;;;;;;;8.33;100.00;100860.97;5050009;28;20612;-38
2022/12/24 06:42:11;;;;;;;72.47;7.65;;;;;;;8.31;100.00;100859.47;5049246;28;19913;-38
2022/12/24 06:44:36;;;;;;;65.32;6.97;;;;;;;8.28;100.00;100860.63;5052756;28;20025;-37
2022/12/24 06:47:02;;;;;;;81.80;7.32;;;;;;;8.26;100.00;100864.47;5058717;28;20356;-35
2022/12/24 06:49:27;;;;;;;69.60;7.38;;;;;;;8.21;100.00;100862.28;5059570;28;20365;-36
2022/12/24 06:51:52;;;;;;;77.03;9.07;;;;;;;8.21;100.00;100873.00;5060910;28;20025;-35
2022/12/24 06:54:18;;;;;;;73.45;7.35;;;;;;;8.19;100.00;100868.81;5055267;28;20060;-38
2022/12/24 06:56:43;;;;;;;73.28;7.00;;;;;;;8.17;100.00;100865.50;5069166;28;20025;-35
2022/12/24 06:59:08;;;;;;;77.03;7.78;;;;;;;8.17;100.00;100876.22;5065026;28;20028;-36
2022/12/24 07:01:34;;;;;;;71.05;7.13;;;;;;;8.12;100.00;100890.09;5057220;28;20060;-36
2022/12/24 07:03:59;;;;;;;67.93;7.05;;;;;;;8.10;100.00;100897.47;5067724;28;20078;-36
2022/12/24 07:06:26;;;;;;;88.45;7.63;;;;;;;8.07;100.00;100887.91;5066355;28;20029;-38
2022/12/24 07:08:52;;;;;;;69.07;6.95;;;;;;;8.04;100.00;100888.25;5049826;28;20139;-35
2022/12/24 07:11:18;;;;;;;67.00;8.27;;;;;;;8.03;100.00;100891.94;5049123;28;20429;-38
2022/12/24 07:13:43;;;;;;;70.13;6.47;;;;;;;8.04;100.00;100890.09;5066029;28;20017;-38
2022/12/24 07:16:09;;;;;;;72.88;6.80;;;;;;;8.05;100.00;100902.47;5062601;28;20549;-37
2022/12/24 07:18:34;;;;;;;81.32;8.23;;;;;;;8.10;100.00;100902.81;5067219;28;20551;-38
2022/12/24 07:21:02;;;;;;;72.18;6.80;;;;;;;8.11;100.00;100899.16;5067333;28;20364;-36
2022/12/24 07:23:28;;;;;;;83.20;8.52;;;;;;;8.13;100.00;100919.41;5067792;28;20036;-37
2022/12/24 07:25:53;;;;;;;72.93;7.05;;;;;;;8.15;100.00;100916.56;5068144;28;20426;-39
2022/12/24 07:28:18;;;;;;;60.78;6.90;;;;;;;8.19;100.00;100912.56;5067546;28;20497;-37
2022/12/24 07:30:44;;;;;;;83.93;9.63;;;;;;;8.19;100.00;100922.44;5066857;28;20020;-37
2022/12/24 07:33:09;;;;;;;71.63;6.82;;;;;;;8.19;100.00;100919.75;5056611;28;20387;-38
2022/12/24 07:35:35;;;;;;;67.07;7.93;;;;;;;8.17;100.00;100919.94;5061511;28;20480;-39
2022/12/24 07:38:01;;;;;;;70.40;7.60;;;;;;;8.16;100.00;100928.97;5046118;28;20668;-37
2022/12/24 07:40:26;;;;;;;61.17;6.72;;;;;;;8.13;100.00;100940.84;5052696;28;20464;-35
2022/12/24 07:42:51;;;;;;;79.60;7.85;;;;;;;8.14;100.00;100939.88;5060161;28;20025;-35
2022/12/24 07:45:17;;;;;;;65.60;6.95;;;;;;;8.12;100.00;100957.94;5054907;28;20496;-37
2022/12/24 07:47:42;;;;;;;62.15;7.20;;;;;;;8.10;100.00;100964.47;5058556;28;20119;-37
2022/12/24 07:50:08;;;;;;;64.03;6.45;;;;;;;8.07;100.00;100957.59;5061128;28;20028;-35
2022/12/24 07:52:33;;;;;;;67.40;7.57;;;;;;;8.06;100.00;100963.97;5060797;28;20041;-34
2022/12/24 07:54:59;;;;;;;59.03;6.38;;;;;;;8.05;100.00;100964.97;5061555;28;20486;-36
2022/12/24 07:57:24;;;;;;;69.95;7.68;;;;;;;8.05;100.00;100964.97;5063861;28;20106;-36
2022/12/24 07:59:49;;;;;;;65.47;7.82;;;;;;;8.03;100.00;100988.44;5063226;28;20032;-35
2022/12/24 08:02:15;;;;;;;66.50;6.65;;;;;;;8.03;100.00;100985.75;5062485;28;20166;-36
2022/12/24 08:04:40;;;;;;;73.32;7.35;;;;;;;8.01;100.00;100990.44;5061053;28;20474;-37
2022/12/24 08:07:06;;;;;;;75.55;7.30;;;;;;;8.01;100.00;100990.44;5061919;28;20351;-35
2022/12/24 08:09:32;;;;;;;74.93;7.93;;;;;;;8.01;100.00;100987.75;5059318;28;20321;-35
2022/12/24 08:11:58;;;;;;;74.65;7.65;;;;;;;8.01;100.00;100989.59;5057415;28;20029;-38
2022/12/24 08:14:23;;;;;;;65.70;6.75;;;;;;;8.00;100.00;100994.09;5054421;28;20194;-36
2022/12/24 08:16:49;;;;;;;84.82;9.70;;;;;;;8.05;100.00;101002.47;5054185;28;20051;-37
2022/12/24 08:19:14;;;;;;;71.55;8.07;;;;;;;8.06;100.00;101008.72;5054370;28;20054;-37
2022/12/24 08:21:39;;;;;;;60.17;6.45;;;;;;;8.07;100.00;101005.84;5059943;28;20119;-35
2022/12/24 08:24:05;;;;;;;65.65;8.07;;;;;;;8.06;100.00;101009.53;5061214;28;20052;-35
2022/12/24 08:26:30;;;;;;;68.88;7.43;;;;;;;8.08;100.00;101012.91;5062945;28;20036;-36
2022/12/24 08:28:56;;;;;;;91.28;9.18;;;;;;;8.09;100.00;101019.94;5057207;28;20484;-35
2022/12/24 08:31:21;;;;;;;79.80;7.93;;;;;;;8.10;100.00;101024.28;5053503;28;20527;-35
2022/12/24 08:33:46;;;;;;;63.47;7.18;;;;;;;8.14;100.00;101032.88;5057021;28;20541;-36
2022/12/24 08:36:12;;;;;;;75.72;6.97;;;;;;;8.18;100.00;101033.38;5057611;28;20037;-36
2022/12/24 08:38:37;;;;;;;70.38;8.32;;;;;;;8.22;100.00;101046.31;5062197;28;20391;-37
2022/12/24 08:41:02;;;;;;;78.15;8.30;;;;;;;8.26;100.00;101044.13;5063261;28;20052;-35
2022/12/24 08:43:28;;;;;;;86.72;9.40;;;;;;;8.33;100.00;101053.22;5061218;28;20033;-36
2022/12/24 08:45:53;;;;;;;75.45;8.00;;;;;;;8.33;100.00;101056.72;5054483;28;20033;-36
2022/12/24 08:48:19;;;;;;;67.43;7.60;;;;;;;8.34;100.00;101061.06;5059474;28;20131;-36
2022/12/24 08:50:44;;;;;;;66.70;6.78;;;;;;;8.39;100.00;101057.09;5059993;28;20120;-37
2022/12/24 08:53:10;;;;;;;71.55;7.90;;;;;;;8.40;100.00;101064.16;5060861;28;20074;-35
2022/12/24 08:55:36;;;;;;;76.50;8.63;;;;;;;8.43;100.00;101063.84;5061477;28;20488;-37
2022/12/24 08:58:02;;;;;;;80.15;7.22;;;;;;;8.47;100.00;101065.19;5063515;28;20068;-35
2022/12/24 09:00:27;;;;;;;74.22;7.25;;;;;;;8.49;100.00;101069.38;5061189;28;20021;-38
2022/12/24 09:02:53;;;;;;;73.57;7.85;;;;;;;8.52;100.00;101069.06;5065774;28;20457;-36
2022/12/24 09:05:18;;;;;;;71.38;8.25;;;;;;;8.57;100.00;101074.78;5069011;28;20039;-35
2022/12/24 09:07:44;;;;;;;57.45;6.57;;;;;;;8.62;100.00;101070.78;5063158;28;20100;-38
2022/12/24 09:10:10;;;;;;;62.92;6.82;;;;;;;8.63;100.00;101070.59;5067736;28;20330;-36
2022/12/24 09:12:35;;;;;;;57.55;7.03;;;;;;;8.63;100.00;101075.13;5065119;28;20035;-36
2022/12/24 09:15:01;;;;;;;67.45;6.75;;;;;;;8.68;100.00;101070.09;5064708;28;20020;-36
2022/12/24 09:17:27;;;;;;;68.13;6.82;;;;;;;8.68;100.00;101084.34;5068229;28;20032;-35
2022/12/24 09:19:52;;;;;;;65.80;6.95;;;;;;;8.69;100.00;101086.06;5066756;28;20036;-36
2022/12/24 09:22:17;;;;;;;57.60;7.00;;;;;;;8.71;100.00;101083.19;5064440;28;20032;-36
2022/12/24 09:24:43;;;;;;;69.13;6.13;;;;;;;8.72;100.00;101092.94;5061907;28;20045;-35
2022/12/24 09:27:08;;;;;;;70.78;6.13;;;;;;;8.75;100.00;101100.66;5063213;28;20025;-36
2022/12/24 09:29:34;;;;;;;54.63;6.55;;;;;;;8.77;100.00;101098.66;5063409;28;20052;-37
2022/12/24 09:31:59;;;;;;;64.05;7.18;;;;;;;8.80;100.00;101098.31;5065423;28;20111;-38
2022/12/24 09:34:25;;;;;;;67.30;6.40;;;;;;;8.83;100.00;101108.72;5064345;28;20060;-39
2022/12/24 09:36:52;;;;;;;59.92;6.15;;;;;;;8.84;100.00;101105.03;5063671;28;20548;-39
2022/12/24 09:39:18;;;;;;;57.80;5.43;;;;;;;8.88;100.00;101110.94;5066259;28;20070;-35
2022/12/24 09:41:48;;;;;;;61.58;6.57;;;;;;;8.90;100.00;101107.06;5064387;28;20452;-35
2022/12/24 09:44:22;;;;;;;66.63;6.82;;;;;;;8.92;100.00;101123.84;5063986;28;20554;-36
2022/12/24 09:46:49;;;;;;;48.22;5.60;;;;;;;8.92;100.00;101131.88;5065916;28;20344;-38
2022/12/24 09:49:18;;;;;;;48.78;5.82;;;;;;;8.97;100.00;101118.81;5064512;28;20422;-36
2022/12/24 09:51:48;;;;;;;68.57;7.55;;;;;;;9.03;100.00;101122.72;5047011;28;20024;-37
2022/12/24 09:54:26;;;;;;;59.08;6.60;;;;;;;9.08;100.00;101112.28;5063285;28;20036;-36
2022/12/24 09:56:54;;;;;;;55.72;5.20;;;;;;;9.14;100.00;101121.56;5064994;28;20067;-40
2022/12/24 09:59:22;;;;;;;64.05;6.15;;;;;;;9.13;100.00;101107.25;5062162;28;20032;-38
2022/12/24 10:01:48;;;;;;;;;;;;;;;9.18;100.00;101117.50;5064818;28;20445;-35
2022/12/24 10:04:15;;;;;;;44.00;4.95;;;;;;;9.29;100.00;101114.50;5065395;28;19946;-37
2022/12/24 10:06:50;;;;;;;57.25;5.38;;;;;;;9.42;100.00;101119.38;5059235;28;20021;-37
2022/12/24 10:09:39;;;;;;;58.42;6.07;;;;;;;9.50;100.00;101111.31;5067375;28;20399;-35
2022/12/24 10:12:07;;;;;;;50.15;5.25;;;;;;;9.61;100.00;101118.19;5068898;28;20376;-35
2022/12/24 10:14:32;;;;;;;;;;;;;;;9.81;100.00;101114.13;5059049;28;20040;-38
2022/12/24 10:17:13;;;;;;;50.23;5.77;;;;;;;10.07;100.00;101113.09;5067356;28;19912;-37
2022/12/24 10:19:43;;;;;;;51.58;5.82;;;;;;;10.38;100.00;101120.44;5052959;28;20297;-36
2022/12/24 10:22:31;;;;;;;48.90;4.78;;;;;;;10.45;100.00;101113.31;5059444;28;20379;-38
2022/12/24 10:25:20;;;;;;;39.85;4.53;;;;;;;10.80;100.00;101116.53;5057671;28;20528;-38
2022/12/24 10:27:46;;;;;;;47.08;4.50;;;;;;;11.01;100.00;101121.31;5068838;28;20099;-36
2022/12/24 10:30:18;;;;;;;41.03;4.60;;;;;;;11.22;100.00;101118.81;5067321;28;20574;-36
2022/12/24 10:32:44;;;;;;;40.42;5.00;;;;;;;11.11;100.00;101117.38;5058008;28;20028;-39
2022/12/24 10:35:12;;;;;;;38.58;4.72;;;;;;;11.38;100.00;101115.16;5050418;28;20364;-38
2022/12/24 10:37:39;;;;;;;50.92;5.32;;;;;;;11.31;100.00;101116.88;5052863;28;20032;-35
2022/12/24 10:40:05;;;;;;;50.58;5.15;;;;;;;11.30;100.00;101123.28;5060632;28;20078;-36
2022/12/24 10:42:38;;;;;;;57.60;6.72;;;;;;;10.96;100.00;101117.28;5066571;28;20093;-35
2022/12/24 10:45:06;;;;;;;29.67;5.18;;;;;;;10.83;100.00;101133.19;5071678;28;20032;-38
2022/12/24 10:47:33;;;;;;;41.80;5.75;;;;;;;10.73;100.00;101130.69;5070112;28;20464;-38
2022/12/24 10:50:19;;;;;;;46.77;5.87;;;;;;;10.65;100.00;101144.19;5069900;28;20023;-38
2022/12/24 10:52:46;;;;;;;40.03;4.45;;;;;;;10.63;100.00;101140.84;5052348;28;20037;-36
2022/12/24 10:55:11;;;;;;;43.40;4.72;;;;;;;10.53;100.00;101135.69;5051274;28;20060;-38
2022/12/24 10:57:37;;;;;;;52.17;6.15;;;;;;;10.38;100.00;101141.97;5052141;28;20064;-37
2022/12/24 11:00:05;;;;;;;40.30;4.95;;;;;;;10.19;100.00;101138.63;5052394;28;20041;-35
2022/12/24 11:02:37;;;;;;;52.95;5.53;;;;;;;10.01;100.00;101146.88;5062573;28;20124;-38
2022/12/24 11:05:06;;;;;;;43.47;4.72;;;;;;;9.87;100.00;101150.25;5069657;28;20482;-36
2022/12/24 11:07:32;;;;;;;47.45;5.22;;;;;;;9.78;100.00;101156.66;5067768;28;20074;-37
2022/12/24 11:10:05;;;;;;;45.45;5.53;;;;;;;9.70;100.00;101162.03;5066353;28;20387;-36
2022/12/24 11:12:36;;;;;;;45.72;5.15;;;;;;;9.71;100.00;101148.41;5058371;28;20029;-38
2022/12/24 11:15:23;;;;;;;44.08;5.47;;;;;;;9.68;100.00;101159.50;5054915;28;20025;-36
2022/12/24 11:18:02;;;;;;;46.75;5.00;;;;;;;9.71;100.00;101156.47;5065656;28;20385;-37
2022/12/24 11:20:29;;;;;;;45.85;5.82;;;;;;;9.68;100.00;101156.81;5054947;28;20036;-37
2022/12/24 11:22:55;;;;;;;46.15;5.47;;;;;;;9.71;100.00;101152.97;5057315;28;20041;-38
2022/12/24 11:25:30;;;;;;;39.05;4.63;;;;;;;9.74;100.00;101158.84;5059425;28;20063;-37
2022/12/24 11:27:57;;;;;;;53.42;6.15;;;;;;;9.75;100.00;101168.59;5074215;28;20117;-35